sensor_id;sensor_type;location;lat;lon;timestamp;pressure;altitude;pressure_sealevel;temperature;humidity
62632;BME280;48703;51.248;-0.546;2023-04-15T00:03:01;100236;;;6.62;96.78
62632;BME280;48703;51.248;-0.546;2023-04-15T00:06:03;100242;;;6.61;96.55
62632;BME280;48703;51.248;-0.546;2023-04-15T00:09:05;100243;;;6.60;96.64
62632;BME280;48703;51.248;-0.546;2023-04-15T00:12:07;100247;;;6.59;96.72
62632;BME280;48703;51.248;-0.546;2023-04-15T00:15:09;100253;;;6.58;96.69
62632;BME280;48703;51.248;-0.546;2023-04-15T00:18:11;100257;;;6.58;96.96
62632;BME280;48703;51.248;-0.546;2023-04-15T00:21:13;100256;;;6.58;96.76
62632;BME280;48703;51.248;-0.546;2023-04-15T00:24:15;100259;;;6.57;96.71
62632;BME280;48703;51.248;-0.546;2023-04-15T00:27:17;100260;;;6.56;96.72
62632;BME280;48703;51.248;-0.546;2023-04-15T00:30:19;100264;;;6.54;96.66
62632;BME280;48703;51.248;-0.546;2023-04-15T00:33:21;100266;;;6.52;96.91
62632;BME280;48703;51.248;-0.546;2023-04-15T00:36:23;100273;;;6.51;96.82
62632;BME280;48703;51.248;-0.546;2023-04-15T00:39:25;100277;;;6.51;96.98
62632;BME280;48703;51.248;-0.546;2023-04-15T00:42:27;100279;;;6.49;97.05
62632;BME280;48703;51.248;-0.546;2023-04-15T00:45:29;100279;;;6.50;96.87
62632;BME280;48703;51.248;-0.546;2023-04-15T00:48:32;100283;;;6.50;96.84
62632;BME280;48703;51.248;-0.546;2023-04-15T00:51:33;100284;;;6.50;96.84
62632;BME280;48703;51.248;-0.546;2023-04-15T00:54:35;100286;;;6.49;96.91
62632;BME280;48703;51.248;-0.546;2023-04-15T00:57:38;100287;;;6.49;96.90
62632;BME280;48703;51.248;-0.546;2023-04-15T01:00:39;100287;;;6.47;96.89
62632;BME280;48703;51.248;-0.546;2023-04-15T01:03:42;100290;;;6.45;97.04
62632;BME280;48703;51.248;-0.546;2023-04-15T01:06:44;100290;;;6.42;97.20
62632;BME280;48703;51.248;-0.546;2023-04-15T01:09:46;100294;;;6.41;97.26
62632;BME280;48703;51.248;-0.546;2023-04-15T01:12:48;100299;;;6.40;97.40
62632;BME280;48703;51.248;-0.546;2023-04-15T01:15:50;100301;;;6.37;97.67
62632;BME280;48703;51.248;-0.546;2023-04-15T01:18:52;100300;;;6.38;97.78
62632;BME280;48703;51.248;-0.546;2023-04-15T01:21:54;100306;;;6.39;97.78
62632;BME280;48703;51.248;-0.546;2023-04-15T01:24:57;100311;;;6.39;97.67
62632;BME280;48703;51.248;-0.546;2023-04-15T01:27:58;100316;;;6.38;97.71
62632;BME280;48703;51.248;-0.546;2023-04-15T01:31:07;100318;;;6.39;97.82
62632;BME280;48703;51.248;-0.546;2023-04-15T01:34:02;100321;;;6.39;97.72
62632;BME280;48703;51.248;-0.546;2023-04-15T01:37:04;100322;;;6.39;97.73
62632;BME280;48703;51.248;-0.546;2023-04-15T01:40:06;100325;;;6.38;97.68
62632;BME280;48703;51.248;-0.546;2023-04-15T01:43:08;100329;;;6.36;97.70
62632;BME280;48703;51.248;-0.546;2023-04-15T01:46:10;100334;;;6.36;97.90
62632;BME280;48703;51.248;-0.546;2023-04-15T01:49:12;100342;;;6.36;97.82
62632;BME280;48703;51.248;-0.546;2023-04-15T01:52:14;100347;;;6.34;97.61
62632;BME280;48703;51.248;-0.546;2023-04-15T01:55:16;100351;;;6.34;97.67
62632;BME280;48703;51.248;-0.546;2023-04-15T01:58:18;100358;;;6.35;97.55
62632;BME280;48703;51.248;-0.546;2023-04-15T02:01:20;100364;;;6.35;97.68
62632;BME280;48703;51.248;-0.546;2023-04-15T02:04:22;100367;;;6.36;97.64
62632;BME280;48703;51.248;-0.546;2023-04-15T02:07:24;100368;;;6.36;97.81
62632;BME280;48703;51.248;-0.546;2023-04-15T02:10:26;100375;;;6.36;97.64
62632;BME280;48703;51.248;-0.546;2023-04-15T02:13:28;100379;;;6.37;97.73
62632;BME280;48703;51.248;-0.546;2023-04-15T02:16:30;100382;;;6.36;97.77
62632;BME280;48703;51.248;-0.546;2023-04-15T02:19:32;100385;;;6.37;97.79
62632;BME280;48703;51.248;-0.546;2023-04-15T02:22:34;100385;;;6.36;97.40
62632;BME280;48703;51.248;-0.546;2023-04-15T02:25:36;100387;;;6.36;97.52
62632;BME280;48703;51.248;-0.546;2023-04-15T02:28:38;100390;;;6.37;97.59
62632;BME280;48703;51.248;-0.546;2023-04-15T02:31:40;100392;;;6.37;97.37
62632;BME280;48703;51.248;-0.546;2023-04-15T02:34:42;100398;;;6.37;97.23
62632;BME280;48703;51.248;-0.546;2023-04-15T02:37:44;100403;;;6.35;97.27
62632;BME280;48703;51.248;-0.546;2023-04-15T02:40:46;100411;;;6.34;97.40
62632;BME280;48703;51.248;-0.546;2023-04-15T02:43:48;100413;;;6.32;97.40
62632;BME280;48703;51.248;-0.546;2023-04-15T02:46:50;100416;;;6.31;97.33
62632;BME280;48703;51.248;-0.546;2023-04-15T02:49:52;100420;;;6.31;97.57
62632;BME280;48703;51.248;-0.546;2023-04-15T02:52:54;100422;;;6.28;97.52
62632;BME280;48703;51.248;-0.546;2023-04-15T02:55:56;100425;;;6.29;97.42
62632;BME280;48703;51.248;-0.546;2023-04-15T02:58:58;100428;;;6.30;97.32
62632;BME280;48703;51.248;-0.546;2023-04-15T03:02:00;100436;;;6.31;97.36
62632;BME280;48703;51.248;-0.546;2023-04-15T03:05:03;100440;;;6.27;97.36
62632;BME280;48703;51.248;-0.546;2023-04-15T03:08:04;100445;;;6.27;97.32
62632;BME280;48703;51.248;-0.546;2023-04-15T03:11:06;100455;;;6.25;96.98
62632;BME280;48703;51.248;-0.546;2023-04-15T03:14:08;100455;;;6.22;97.20
62632;BME280;48703;51.248;-0.546;2023-04-15T03:17:10;100460;;;6.23;97.07
62632;BME280;48703;51.248;-0.546;2023-04-15T03:20:12;100467;;;6.20;96.72
62632;BME280;48703;51.248;-0.546;2023-04-15T03:23:14;100470;;;6.19;96.83
62632;BME280;48703;51.248;-0.546;2023-04-15T03:26:25;100474;;;6.20;96.70
62632;BME280;48703;51.248;-0.546;2023-04-15T03:29:18;100480;;;6.18;96.73
62632;BME280;48703;51.248;-0.546;2023-04-15T03:32:20;100489;;;6.17;96.57
62632;BME280;48703;51.248;-0.546;2023-04-15T03:35:22;100497;;;6.15;96.65
62632;BME280;48703;51.248;-0.546;2023-04-15T03:38:25;100505;;;6.14;96.57
62632;BME280;48703;51.248;-0.546;2023-04-15T03:41:27;100505;;;6.13;96.48
62632;BME280;48703;51.248;-0.546;2023-04-15T03:44:29;100512;;;6.13;96.20
62632;BME280;48703;51.248;-0.546;2023-04-15T03:47:31;100515;;;6.14;96.12
62632;BME280;48703;51.248;-0.546;2023-04-15T03:50:33;100520;;;6.15;96.33
62632;BME280;48703;51.248;-0.546;2023-04-15T03:53:35;100524;;;6.11;96.17
62632;BME280;48703;51.248;-0.546;2023-04-15T03:56:37;100530;;;6.11;96.20
62632;BME280;48703;51.248;-0.546;2023-04-15T03:59:39;100536;;;6.11;96.19
62632;BME280;48703;51.248;-0.546;2023-04-15T04:02:41;100540;;;6.11;96.56
62632;BME280;48703;51.248;-0.546;2023-04-15T04:05:43;100543;;;6.10;96.51
62632;BME280;48703;51.248;-0.546;2023-04-15T04:08:45;100546;;;6.08;96.71
62632;BME280;48703;51.248;-0.546;2023-04-15T04:11:47;100553;;;6.08;96.75
62632;BME280;48703;51.248;-0.546;2023-04-15T04:14:49;100556;;;6.09;96.67
62632;BME280;48703;51.248;-0.546;2023-04-15T04:17:51;100563;;;6.09;96.50
62632;BME280;48703;51.248;-0.546;2023-04-15T04:20:53;100564;;;6.09;96.46
62632;BME280;48703;51.248;-0.546;2023-04-15T04:23:55;100566;;;6.09;96.61
62632;BME280;48703;51.248;-0.546;2023-04-15T04:26:57;100569;;;6.09;96.65
62632;BME280;48703;51.248;-0.546;2023-04-15T04:29:59;100576;;;6.10;96.54
62632;BME280;48703;51.248;-0.546;2023-04-15T04:33:01;100583;;;6.10;96.70
62632;BME280;48703;51.248;-0.546;2023-04-15T04:36:03;100591;;;6.10;96.73
62632;BME280;48703;51.248;-0.546;2023-04-15T04:39:05;100596;;;6.12;96.57
62632;BME280;48703;51.248;-0.546;2023-04-15T04:42:07;100605;;;6.11;96.48
62632;BME280;48703;51.248;-0.546;2023-04-15T04:45:09;100611;;;6.11;96.67
62632;BME280;48703;51.248;-0.546;2023-04-15T04:48:11;100613;;;6.13;96.43
62632;BME280;48703;51.248;-0.546;2023-04-15T04:51:13;100620;;;6.13;96.04
62632;BME280;48703;51.248;-0.546;2023-04-15T04:54:15;100629;;;6.14;96.30
62632;BME280;48703;51.248;-0.546;2023-04-15T04:57:17;100636;;;6.13;96.27
62632;BME280;48703;51.248;-0.546;2023-04-15T05:00:19;100644;;;6.15;96.26
62632;BME280;48703;51.248;-0.546;2023-04-15T05:03:21;100651;;;6.15;96.14
62632;BME280;48703;51.248;-0.546;2023-04-15T05:06:23;100655;;;6.15;96.23
62632;BME280;48703;51.248;-0.546;2023-04-15T05:09:25;100662;;;6.16;96.36
62632;BME280;48703;51.248;-0.546;2023-04-15T05:12:27;100669;;;6.17;96.21
62632;BME280;48703;51.248;-0.546;2023-04-15T05:15:29;100675;;;6.16;96.16
62632;BME280;48703;51.248;-0.546;2023-04-15T05:18:31;100681;;;6.16;96.41
62632;BME280;48703;51.248;-0.546;2023-04-15T05:21:33;100690;;;6.16;96.42
62632;BME280;48703;51.248;-0.546;2023-04-15T05:24:35;100695;;;6.16;96.39
62632;BME280;48703;51.248;-0.546;2023-04-15T05:27:37;100697;;;6.17;96.51
62632;BME280;48703;51.248;-0.546;2023-04-15T05:30:39;100699;;;6.18;96.50
62632;BME280;48703;51.248;-0.546;2023-04-15T05:33:41;100703;;;6.16;96.56
62632;BME280;48703;51.248;-0.546;2023-04-15T05:36:43;100713;;;6.15;96.27
62632;BME280;48703;51.248;-0.546;2023-04-15T05:39:45;100720;;;6.15;96.42
62632;BME280;48703;51.248;-0.546;2023-04-15T05:42:47;100728;;;6.16;96.21
62632;BME280;48703;51.248;-0.546;2023-04-15T05:45:49;100734;;;6.16;96.27
62632;BME280;48703;51.248;-0.546;2023-04-15T05:48:51;100745;;;6.19;96.36
62632;BME280;48703;51.248;-0.546;2023-04-15T05:51:53;100751;;;6.18;96.16
62632;BME280;48703;51.248;-0.546;2023-04-15T05:54:55;100758;;;6.19;96.15
62632;BME280;48703;51.248;-0.546;2023-04-15T05:57:57;100765;;;6.19;96.10
62632;BME280;48703;51.248;-0.546;2023-04-15T06:00:59;100772;;;6.20;96.12
62632;BME280;48703;51.248;-0.546;2023-04-15T06:04:01;100780;;;6.21;96.05
62632;BME280;48703;51.248;-0.546;2023-04-15T06:07:03;100790;;;6.21;96.17
62632;BME280;48703;51.248;-0.546;2023-04-15T06:10:06;100798;;;6.23;96.19
62632;BME280;48703;51.248;-0.546;2023-04-15T06:13:07;100804;;;6.23;96.09
62632;BME280;48703;51.248;-0.546;2023-04-15T06:16:09;100808;;;6.25;96.20
62632;BME280;48703;51.248;-0.546;2023-04-15T06:19:11;100818;;;6.26;96.07
62632;BME280;48703;51.248;-0.546;2023-04-15T06:22:13;100823;;;6.26;95.99
62632;BME280;48703;51.248;-0.546;2023-04-15T06:25:15;100828;;;6.29;96.21
62632;BME280;48703;51.248;-0.546;2023-04-15T06:28:17;100837;;;6.28;96.20
62632;BME280;48703;51.248;-0.546;2023-04-15T06:31:20;100844;;;6.29;96.20
62632;BME280;48703;51.248;-0.546;2023-04-15T06:34:22;100850;;;6.28;96.18
62632;BME280;48703;51.248;-0.546;2023-04-15T06:37:24;100852;;;6.27;96.12
62632;BME280;48703;51.248;-0.546;2023-04-15T06:40:26;100860;;;6.28;95.98
62632;BME280;48703;51.248;-0.546;2023-04-15T06:43:28;100863;;;6.29;96.04
62632;BME280;48703;51.248;-0.546;2023-04-15T06:46:30;100867;;;6.30;96.16
62632;BME280;48703;51.248;-0.546;2023-04-15T06:49:32;100876;;;6.30;95.96
62632;BME280;48703;51.248;-0.546;2023-04-15T06:52:34;100883;;;6.30;96.06
62632;BME280;48703;51.248;-0.546;2023-04-15T06:55:36;100890;;;6.32;96.12
62632;BME280;48703;51.248;-0.546;2023-04-15T06:58:38;100896;;;6.34;96.00
62632;BME280;48703;51.248;-0.546;2023-04-15T07:01:40;100905;;;6.35;95.91
62632;BME280;48703;51.248;-0.546;2023-04-15T07:04:42;100911;;;6.38;96.16
62632;BME280;48703;51.248;-0.546;2023-04-15T07:07:44;100916;;;6.37;95.73
62632;BME280;48703;51.248;-0.546;2023-04-15T07:10:46;100922;;;6.39;95.94
62632;BME280;48703;51.248;-0.546;2023-04-15T07:13:48;100925;;;6.41;95.98
62632;BME280;48703;51.248;-0.546;2023-04-15T07:16:50;100933;;;6.42;95.83
62632;BME280;48703;51.248;-0.546;2023-04-15T07:19:52;100940;;;6.44;95.67
62632;BME280;48703;51.248;-0.546;2023-04-15T07:22:54;100948;;;6.47;95.57
62632;BME280;48703;51.248;-0.546;2023-04-15T07:25:56;100954;;;6.49;95.37
62632;BME280;48703;51.248;-0.546;2023-04-15T07:28:58;100959;;;6.51;95.29
62632;BME280;48703;51.248;-0.546;2023-04-15T07:32:00;100962;;;6.53;95.26
62632;BME280;48703;51.248;-0.546;2023-04-15T07:35:02;100972;;;6.55;95.22
62632;BME280;48703;51.248;-0.546;2023-04-15T07:38:04;100976;;;6.58;95.14
62632;BME280;48703;51.248;-0.546;2023-04-15T07:41:06;100980;;;6.62;95.23
62632;BME280;48703;51.248;-0.546;2023-04-15T07:44:08;100986;;;6.64;95.10
62632;BME280;48703;51.248;-0.546;2023-04-15T07:47:10;100994;;;6.68;95.05
62632;BME280;48703;51.248;-0.546;2023-04-15T07:50:12;100999;;;6.70;94.86
62632;BME280;48703;51.248;-0.546;2023-04-15T07:53:14;101005;;;6.73;94.86
62632;BME280;48703;51.248;-0.546;2023-04-15T07:56:16;101009;;;6.77;94.93
62632;BME280;48703;51.248;-0.546;2023-04-15T07:59:18;101013;;;6.80;94.64
62632;BME280;48703;51.248;-0.546;2023-04-15T08:02:20;101018;;;6.86;94.89
62632;BME280;48703;51.248;-0.546;2023-04-15T08:05:22;101022;;;6.91;94.66
62632;BME280;48703;51.248;-0.546;2023-04-15T08:08:24;101025;;;6.94;94.37
62632;BME280;48703;51.248;-0.546;2023-04-15T08:11:26;101033;;;6.99;93.78
62632;BME280;48703;51.248;-0.546;2023-04-15T08:14:28;101040;;;7.03;93.98
62632;BME280;48703;51.248;-0.546;2023-04-15T08:17:30;101045;;;7.07;93.42
62632;BME280;48703;51.248;-0.546;2023-04-15T08:20:32;101049;;;7.11;93.48
62632;BME280;48703;51.248;-0.546;2023-04-15T08:23:34;101054;;;7.16;93.82
62632;BME280;48703;51.248;-0.546;2023-04-15T08:26:36;101059;;;7.22;94.03
62632;BME280;48703;51.248;-0.546;2023-04-15T08:29:38;101064;;;7.28;93.35
62632;BME280;48703;51.248;-0.546;2023-04-15T08:32:40;101069;;;7.31;92.86
62632;BME280;48703;51.248;-0.546;2023-04-15T08:35:42;101076;;;7.32;92.29
62632;BME280;48703;51.248;-0.546;2023-04-15T08:38:44;101081;;;7.36;92.49
62632;BME280;48703;51.248;-0.546;2023-04-15T08:41:51;101085;;;7.42;92.93
62632;BME280;48703;51.248;-0.546;2023-04-15T08:44:48;101088;;;7.46;92.11
62632;BME280;48703;51.248;-0.546;2023-04-15T08:47:50;101092;;;7.50;92.77
62632;BME280;48703;51.248;-0.546;2023-04-15T08:50:52;101100;;;7.55;92.50
62632;BME280;48703;51.248;-0.546;2023-04-15T08:53:54;101111;;;7.58;93.08
62632;BME280;48703;51.248;-0.546;2023-04-15T08:56:57;101121;;;7.58;92.29
62632;BME280;48703;51.248;-0.546;2023-04-15T08:59:59;101129;;;7.63;92.62
62632;BME280;48703;51.248;-0.546;2023-04-15T09:03:00;101139;;;7.65;91.95
62632;BME280;48703;51.248;-0.546;2023-04-15T09:06:03;101144;;;7.64;91.69
62632;BME280;48703;51.248;-0.546;2023-04-15T09:09:04;101149;;;7.67;91.54
62632;BME280;48703;51.248;-0.546;2023-04-15T09:12:07;101154;;;7.71;91.44
62632;BME280;48703;51.248;-0.546;2023-04-15T09:15:10;101159;;;7.74;91.30
62632;BME280;48703;51.248;-0.546;2023-04-15T09:18:11;101165;;;7.79;91.73
62632;BME280;48703;51.248;-0.546;2023-04-15T09:21:13;101169;;;7.83;91.26
62632;BME280;48703;51.248;-0.546;2023-04-15T09:24:15;101172;;;7.87;91.28
62632;BME280;48703;51.248;-0.546;2023-04-15T09:27:17;101175;;;7.88;89.87
62632;BME280;48703;51.248;-0.546;2023-04-15T09:30:19;101179;;;7.93;89.27
62632;BME280;48703;51.248;-0.546;2023-04-15T09:33:21;101181;;;8.02;89.84
62632;BME280;48703;51.248;-0.546;2023-04-15T09:36:23;101181;;;8.14;89.97
62632;BME280;48703;51.248;-0.546;2023-04-15T09:39:25;101184;;;8.22;88.79
62632;BME280;48703;51.248;-0.546;2023-04-15T09:42:27;101188;;;8.29;87.74
62632;BME280;48703;51.248;-0.546;2023-04-15T09:45:29;101187;;;8.39;88.18
62632;BME280;48703;51.248;-0.546;2023-04-15T09:48:31;101188;;;8.53;87.32
62632;BME280;48703;51.248;-0.546;2023-04-15T09:51:33;101193;;;8.70;87.71
62632;BME280;48703;51.248;-0.546;2023-04-15T09:54:36;101202;;;8.84;87.42
62632;BME280;48703;51.248;-0.546;2023-04-15T09:57:37;101211;;;8.97;87.17
62632;BME280;48703;51.248;-0.546;2023-04-15T10:00:39;101217;;;9.02;86.77
62632;BME280;48703;51.248;-0.546;2023-04-15T10:03:41;101222;;;9.08;85.93
62632;BME280;48703;51.248;-0.546;2023-04-15T10:06:43;101226;;;9.06;84.40
62632;BME280;48703;51.248;-0.546;2023-04-15T10:09:45;101230;;;9.04;83.88
62632;BME280;48703;51.248;-0.546;2023-04-15T10:12:47;101237;;;9.01;83.58
62632;BME280;48703;51.248;-0.546;2023-04-15T10:15:49;101240;;;8.97;83.46
62632;BME280;48703;51.248;-0.546;2023-04-15T10:18:53;101241;;;8.98;83.87
62632;BME280;48703;51.248;-0.546;2023-04-15T10:21:53;101242;;;9.03;84.26
62632;BME280;48703;51.248;-0.546;2023-04-15T10:24:55;101246;;;9.07;83.79
62632;BME280;48703;51.248;-0.546;2023-04-15T10:27:57;101250;;;9.18;84.93
62632;BME280;48703;51.248;-0.546;2023-04-15T10:30:59;101258;;;9.26;84.15
62632;BME280;48703;51.248;-0.546;2023-04-15T10:34:01;101262;;;9.34;85.11
62632;BME280;48703;51.248;-0.546;2023-04-15T10:37:03;101268;;;9.38;83.05
62632;BME280;48703;51.248;-0.546;2023-04-15T10:40:38;101275;;;9.40;82.93
62632;BME280;48703;51.248;-0.546;2023-04-15T10:43:07;101278;;;9.42;82.78
62632;BME280;48703;51.248;-0.546;2023-04-15T10:46:09;101284;;;9.44;83.49
62632;BME280;48703;51.248;-0.546;2023-04-15T10:49:13;101285;;;9.50;83.36
62632;BME280;48703;51.248;-0.546;2023-04-15T10:52:13;101284;;;9.51;82.08
62632;BME280;48703;51.248;-0.546;2023-04-15T10:55:17;101286;;;9.62;82.48
62632;BME280;48703;51.248;-0.546;2023-04-15T10:58:17;101291;;;9.72;80.96
62632;BME280;48703;51.248;-0.546;2023-04-15T11:01:19;101297;;;9.75;81.26
62632;BME280;48703;51.248;-0.546;2023-04-15T11:04:58;101305;;;9.78;80.59
62632;BME280;48703;51.248;-0.546;2023-04-15T11:07:40;101312;;;9.77;80.38
62632;BME280;48703;51.248;-0.546;2023-04-15T11:10:49;101317;;;9.84;82.21
62632;BME280;48703;51.248;-0.546;2023-04-15T11:13:28;101323;;;9.94;81.47
62632;BME280;48703;51.248;-0.546;2023-04-15T11:16:29;101327;;;9.99;82.75
62632;BME280;48703;51.248;-0.546;2023-04-15T11:19:35;101333;;;10.01;83.32
62632;BME280;48703;51.248;-0.546;2023-04-15T11:22:33;101339;;;10.04;83.49
62632;BME280;48703;51.248;-0.546;2023-04-15T11:25:35;101347;;;10.03;82.59
62632;BME280;48703;51.248;-0.546;2023-04-15T11:28:38;101352;;;10.08;83.28
62632;BME280;48703;51.248;-0.546;2023-04-15T11:31:39;101356;;;10.15;83.70
62632;BME280;48703;51.248;-0.546;2023-04-15T11:34:44;101359;;;10.19;82.04
62632;BME280;48703;51.248;-0.546;2023-04-15T11:37:43;101362;;;10.21;81.77
62632;BME280;48703;51.248;-0.546;2023-04-15T11:40:45;101364;;;10.27;82.74
62632;BME280;48703;51.248;-0.546;2023-04-15T11:43:47;101370;;;10.29;80.26
62632;BME280;48703;51.248;-0.546;2023-04-15T11:46:49;101370;;;10.37;81.62
62632;BME280;48703;51.248;-0.546;2023-04-15T11:49:51;101375;;;10.43;80.89
62632;BME280;48703;51.248;-0.546;2023-04-15T11:52:54;101378;;;10.43;79.48
62632;BME280;48703;51.248;-0.546;2023-04-15T11:55:55;101378;;;10.50;79.63
62632;BME280;48703;51.248;-0.546;2023-04-15T11:58:58;101377;;;10.61;81.65
62632;BME280;48703;51.248;-0.546;2023-04-15T12:02:09;101372;;;10.72;80.64
62632;BME280;48703;51.248;-0.546;2023-04-15T12:05:03;101372;;;10.86;77.10
62632;BME280;48703;51.248;-0.546;2023-04-15T12:08:04;101372;;;11.01;78.86
62632;BME280;48703;51.248;-0.546;2023-04-15T12:11:06;101381;;;11.10;78.27
62632;BME280;48703;51.248;-0.546;2023-04-15T12:14:09;101389;;;11.05;75.72
62632;BME280;48703;51.248;-0.546;2023-04-15T12:17:10;101391;;;10.95;75.62
62632;BME280;48703;51.248;-0.546;2023-04-15T12:20:12;101393;;;11.03;78.11
62632;BME280;48703;51.248;-0.546;2023-04-15T12:23:18;101395;;;11.19;76.99
62632;BME280;48703;51.248;-0.546;2023-04-15T12:26:16;101396;;;11.30;74.14
62632;BME280;48703;51.248;-0.546;2023-04-15T12:29:18;101399;;;11.29;74.12
62632;BME280;48703;51.248;-0.546;2023-04-15T12:32:20;101401;;;11.29;75.14
62632;BME280;48703;51.248;-0.546;2023-04-15T12:35:22;101403;;;11.41;74.93
62632;BME280;48703;51.248;-0.546;2023-04-15T12:38:24;101409;;;11.43;75.82
62632;BME280;48703;51.248;-0.546;2023-04-15T12:41:26;101416;;;11.42;76.58
62632;BME280;48703;51.248;-0.546;2023-04-15T12:44:28;101418;;;11.39;76.76
62632;BME280;48703;51.248;-0.546;2023-04-15T12:47:30;101419;;;11.35;76.95
62632;BME280;48703;51.248;-0.546;2023-04-15T12:50:32;101419;;;11.41;77.25
62632;BME280;48703;51.248;-0.546;2023-04-15T12:53:34;101421;;;11.47;73.83
62632;BME280;48703;51.248;-0.546;2023-04-15T12:56:36;101420;;;11.58;74.34
62632;BME280;48703;51.248;-0.546;2023-04-15T12:59:38;101427;;;11.71;74.78
62632;BME280;48703;51.248;-0.546;2023-04-15T13:02:40;101430;;;11.85;74.88
62632;BME280;48703;51.248;-0.546;2023-04-15T13:05:42;101433;;;11.99;72.79
62632;BME280;48703;51.248;-0.546;2023-04-15T13:08:44;101437;;;12.03;74.14
62632;BME280;48703;51.248;-0.546;2023-04-15T13:11:46;101440;;;12.09;72.36
62632;BME280;48703;51.248;-0.546;2023-04-15T13:14:48;101443;;;12.14;69.30
62632;BME280;48703;51.248;-0.546;2023-04-15T13:17:50;101444;;;12.22;70.48
62632;BME280;48703;51.248;-0.546;2023-04-15T13:20:53;101449;;;12.32;71.99
62632;BME280;48703;51.248;-0.546;2023-04-15T13:23:54;101455;;;12.34;69.95
62632;BME280;48703;51.248;-0.546;2023-04-15T13:26:56;101462;;;12.33;70.61
62632;BME280;48703;51.248;-0.546;2023-04-15T13:29:58;101463;;;12.38;69.73
62632;BME280;48703;51.248;-0.546;2023-04-15T13:33:00;101471;;;12.53;70.90
62632;BME280;48703;51.248;-0.546;2023-04-15T13:36:02;101479;;;12.60;69.67
62632;BME280;48703;51.248;-0.546;2023-04-15T13:39:04;101483;;;12.68;69.76
62632;BME280;48703;51.248;-0.546;2023-04-15T13:42:06;101487;;;12.72;68.96
62632;BME280;48703;51.248;-0.546;2023-04-15T13:45:08;101490;;;12.81;69.91
62632;BME280;48703;51.248;-0.546;2023-04-15T13:48:10;101499;;;12.81;68.97
62632;BME280;48703;51.248;-0.546;2023-04-15T13:51:12;101493;;;12.88;68.73
62632;BME280;48703;51.248;-0.546;2023-04-15T13:54:14;101499;;;12.97;68.59
62632;BME280;48703;51.248;-0.546;2023-04-15T13:57:16;101498;;;13.02;66.53
62632;BME280;48703;51.248;-0.546;2023-04-15T14:00:18;101497;;;13.17;65.93
62632;BME280;48703;51.248;-0.546;2023-04-15T14:03:20;101498;;;13.25;64.81
62632;BME280;48703;51.248;-0.546;2023-04-15T14:06:22;101499;;;13.32;66.27
62632;BME280;48703;51.248;-0.546;2023-04-15T14:09:24;101505;;;13.40;67.55
62632;BME280;48703;51.248;-0.546;2023-04-15T14:12:26;101509;;;13.46;65.98
62632;BME280;48703;51.248;-0.546;2023-04-15T14:15:28;101513;;;13.51;65.52
62632;BME280;48703;51.248;-0.546;2023-04-15T14:18:30;101512;;;13.54;65.22
62632;BME280;48703;51.248;-0.546;2023-04-15T14:21:32;101513;;;13.47;63.96
62632;BME280;48703;51.248;-0.546;2023-04-15T14:24:34;101515;;;13.39;61.89
62632;BME280;48703;51.248;-0.546;2023-04-15T14:27:36;101520;;;13.39;61.11
62632;BME280;48703;51.248;-0.546;2023-04-15T14:30:38;101518;;;13.46;61.80
62632;BME280;48703;51.248;-0.546;2023-04-15T14:33:40;101518;;;13.57;62.04
62632;BME280;48703;51.248;-0.546;2023-04-15T14:36:42;101517;;;13.72;64.71
62632;BME280;48703;51.248;-0.546;2023-04-15T14:39:44;101520;;;13.89;66.85
62632;BME280;48703;51.248;-0.546;2023-04-15T14:42:47;101523;;;13.97;63.78
62632;BME280;48703;51.248;-0.546;2023-04-15T14:45:48;101524;;;14.07;65.39
62632;BME280;48703;51.248;-0.546;2023-04-15T14:48:51;101524;;;13.96;64.58
62632;BME280;48703;51.248;-0.546;2023-04-15T14:51:53;101530;;;13.73;61.75
62632;BME280;48703;51.248;-0.546;2023-04-15T14:54:55;101535;;;13.54;62.63
62632;BME280;48703;51.248;-0.546;2023-04-15T14:57:57;101539;;;13.46;62.36
62632;BME280;48703;51.248;-0.546;2023-04-15T15:00:59;101541;;;13.54;61.09
62632;BME280;48703;51.248;-0.546;2023-04-15T15:04:01;101541;;;13.69;62.29
62632;BME280;48703;51.248;-0.546;2023-04-15T15:07:03;101540;;;13.87;62.52
62632;BME280;48703;51.248;-0.546;2023-04-15T15:10:05;101537;;;13.96;61.85
62632;BME280;48703;51.248;-0.546;2023-04-15T15:13:07;101539;;;14.04;57.77
62632;BME280;48703;51.248;-0.546;2023-04-15T15:16:09;101545;;;14.07;58.00
62632;BME280;48703;51.248;-0.546;2023-04-15T15:19:11;101547;;;14.21;60.55
62632;BME280;48703;51.248;-0.546;2023-04-15T15:22:13;101547;;;14.28;59.41
62632;BME280;48703;51.248;-0.546;2023-04-15T15:25:15;101544;;;14.44;59.01
62632;BME280;48703;51.248;-0.546;2023-04-15T15:28:17;101548;;;14.51;58.26
62632;BME280;48703;51.248;-0.546;2023-04-15T15:31:19;101547;;;14.58;57.16
62632;BME280;48703;51.248;-0.546;2023-04-15T15:34:21;101542;;;14.67;60.12
62632;BME280;48703;51.248;-0.546;2023-04-15T15:37:23;101543;;;14.79;58.40
62632;BME280;48703;51.248;-0.546;2023-04-15T15:40:25;101548;;;14.93;60.43
62632;BME280;48703;51.248;-0.546;2023-04-15T15:43:27;101551;;;14.94;56.20
62632;BME280;48703;51.248;-0.546;2023-04-15T15:46:29;101549;;;15.00;55.14
62632;BME280;48703;51.248;-0.546;2023-04-15T15:49:31;101548;;;15.13;59.25
62632;BME280;48703;51.248;-0.546;2023-04-15T15:52:33;101550;;;15.21;54.97
62632;BME280;48703;51.248;-0.546;2023-04-15T15:55:35;101557;;;15.29;56.50
62632;BME280;48703;51.248;-0.546;2023-04-15T15:58:37;101558;;;15.38;57.61
62632;BME280;48703;51.248;-0.546;2023-04-15T16:01:39;101560;;;15.45;56.36
62632;BME280;48703;51.248;-0.546;2023-04-15T16:04:41;101560;;;15.52;58.57
62632;BME280;48703;51.248;-0.546;2023-04-15T16:07:43;101564;;;15.55;55.70
62632;BME280;48703;51.248;-0.546;2023-04-15T16:10:45;101566;;;15.45;56.15
62632;BME280;48703;51.248;-0.546;2023-04-15T16:13:47;101568;;;15.47;57.58
62632;BME280;48703;51.248;-0.546;2023-04-15T16:16:49;101571;;;15.61;59.41
62632;BME280;48703;51.248;-0.546;2023-04-15T16:19:51;101572;;;15.57;55.99
62632;BME280;48703;51.248;-0.546;2023-04-15T16:22:54;101573;;;15.58;58.17
62632;BME280;48703;51.248;-0.546;2023-04-15T16:25:55;101576;;;15.48;57.34